Terminal Aerodrome Forecast
Issued by NWS Greer, SC

Home | Current Version | Previous Version | Text Only | Print | Product List | Glossary On
Versions: 1 2 3 4 5 6 7 8 9 10 11 12 13 14 15 16 17 18 19 20 21 22 23 24 25
000
FTUS42 KGSP 231559 AAC
TAFAVL
TAF AMD
KAVL 231559Z 2316/2412 16004KT 4SM -SHRA BR SCT008 OVC015
      TEMPO 2316/2320 1SM SHRA BR OVC008
     FM240000 35004KT 3SM BR VCSH OVC008
     FM240600 02003KT 3SM BR VCSH BKN003=

USA.gov is the U.S. government's official web portal to all federal, state and local government web resources and services.